OIAG  Aghajari  Airport

Aghajari,, Iran

Add Bookmark
ICAO OIAG
Type Airport
Status Operational
Latitude
30° 44' 39" N
30.744400
Longitude
49° 40' 37" E
49.677200
Local (DST + 5) UTC (GMT + 4)
Feb 9, 2016 12:24 Feb 8, 2016 20:54
Sunrise-Sunset Local UTC
Begin Civil Twilight 06:31 03:01
Sunrise 06:55 03:25
Sunset 05:54 14:24
End Civil Twilight 06:19 14:49
VFR
VFR
MVFR
MVFR
IFR
IFR
LIFR
LIFR
Unknown
Unavailable

Current Weather

METAR Observed VFR
OIAG 082000Z 33006KT CAVOK 10/02 Q1021 Mon, Feb 8, 2016 @ 20:00 UTC
(54 Minutes ago)
Visual Flight Rules
Wind Visibility Conditions
330° at 6 knots (11 kph) 10 km or more
  • No significant weather
Temperatures Readings Precipitation
Current Temp
10°C
50°F
Dewpoint
2°C
36°F
Humidity 58%
Altimeter 30.15" Hg
Sea Level Pressure 1,021 mb
Field Elevation
29 m
95 ft
None Recorded

Additional weather within a 92.6km radius of OIAG

Map ICAO Location
OIAM 54.4km W/SW (248°)
VFR
VFR
MVFR
MVFR
IFR
IFR
LIFR
LIFR
Unknown
Unavailable
-
-

CheckWX.com is intended as a tool to help pilots better visualize weather data. It is not intended as a substitute for an official weather briefing obtained from a Flight Service Station. CheckWX.com does not meet the FAA requirements for an official pre-flight weather briefing. Therefore, it's important that pilots still call and obtain an official FSS pre-flight weather briefing.

© 2007-2016 CheckWX.com
20:54:36 UTC